createdAt,value
2022-11-02T00:01:45.129Z,12.84
2022-11-02T00:06:46.528Z,12.84
2022-11-02T00:11:47.786Z,12.90
2022-11-02T00:16:49.567Z,12.67
2022-11-02T00:21:51.033Z,12.62
2022-11-02T00:26:53.714Z,12.64
2022-11-02T00:31:55.047Z,12.80
2022-11-02T00:36:56.357Z,12.75
2022-11-02T00:41:57.631Z,12.55
2022-11-02T00:46:58.981Z,12.36
2022-11-02T00:52:00.300Z,12.18
2022-11-02T01:02:08.121Z,12.05
2022-11-02T01:07:09.551Z,12.01
2022-11-02T01:12:11.087Z,11.97
2022-11-02T01:17:12.459Z,12.00
2022-11-02T01:22:13.759Z,12.00
2022-11-02T01:27:15.224Z,11.87
2022-11-02T01:32:16.527Z,11.81
2022-11-02T01:37:17.865Z,11.81
2022-11-02T01:42:25.881Z,11.98
2022-11-02T01:47:32.701Z,11.80
2022-11-02T01:52:39.172Z,12.03
2022-11-02T01:57:43.395Z,12.01
2022-11-02T02:02:51.400Z,12.04
2022-11-02T02:07:54.643Z,11.89
2022-11-02T02:12:56.000Z,11.80
2022-11-02T02:18:12.161Z,11.98
2022-11-02T02:23:36.958Z,11.99
2022-11-02T02:28:41.204Z,11.89
2022-11-02T02:33:55.172Z,11.73
2022-11-02T02:39:12.111Z,11.59
2022-11-02T02:44:20.422Z,11.53
2022-11-02T02:49:27.331Z,11.60
2022-11-02T02:54:37.035Z,11.71
2022-11-02T02:59:43.913Z,11.74
2022-11-02T03:04:45.303Z,11.83
2022-11-02T03:09:51.756Z,11.97
2022-11-02T03:15:11.175Z,11.98
2022-11-02T03:20:37.318Z,12.07
2022-11-02T03:26:00.250Z,12.12
2022-11-02T03:31:28.245Z,12.01
2022-11-02T03:36:37.691Z,11.92
2022-11-02T03:41:43.772Z,11.78
2022-11-02T03:46:46.535Z,11.83
2022-11-02T03:51:49.986Z,11.81
2022-11-02T03:56:56.574Z,11.91
2022-11-02T04:01:59.804Z,11.89
2022-11-02T04:07:01.282Z,11.81
2022-11-02T04:12:21.283Z,11.79
2022-11-02T04:17:41.095Z,11.89
2022-11-02T04:23:00.849Z,11.89
2022-11-02T04:28:08.514Z,12.01
2022-11-02T04:33:28.584Z,11.90
2022-11-02T04:38:43.021Z,11.72
2022-11-02T04:43:44.426Z,11.73
2022-11-02T04:48:46.281Z,11.75
2022-11-02T04:53:48.782Z,11.73
2022-11-02T04:58:52.163Z,11.64
2022-11-02T05:03:55.990Z,11.66
2022-11-02T05:08:57.265Z,11.70
2022-11-02T05:13:58.563Z,11.76
2022-11-02T05:18:59.859Z,11.72
2022-11-02T05:24:01.237Z,11.68
2022-11-02T05:29:02.546Z,11.74
2022-11-02T05:34:03.840Z,11.70
2022-11-02T05:39:05.157Z,11.64
2022-11-02T05:44:06.554Z,11.53
2022-11-02T05:49:07.896Z,11.52
2022-11-02T05:54:09.168Z,11.59
2022-11-02T05:59:10.502Z,11.38
2022-11-02T06:04:11.835Z,11.24
2022-11-02T06:09:13.272Z,11.25
2022-11-02T06:14:14.557Z,11.32
2022-11-02T06:19:15.883Z,11.28
2022-11-02T06:24:17.198Z,11.31
2022-11-02T06:29:18.474Z,11.35
2022-11-02T06:34:19.826Z,11.37
2022-11-02T06:39:21.475Z,11.48
2022-11-02T06:44:23.847Z,11.44
2022-11-02T06:49:25.179Z,11.39
2022-11-02T06:54:26.534Z,11.34
2022-11-02T06:59:27.844Z,11.21
2022-11-02T07:04:29.171Z,11.25
2022-11-02T07:09:30.525Z,11.30
2022-11-02T07:14:31.918Z,11.48
2022-11-02T07:19:33.479Z,11.63
2022-11-02T07:24:34.883Z,11.59
2022-11-02T07:29:36.152Z,11.72
2022-11-02T07:34:37.533Z,11.84
2022-11-02T07:39:38.850Z,11.96
2022-11-02T07:44:40.188Z,12.02
2022-11-02T07:49:41.568Z,12.14
2022-11-02T07:54:44.735Z,12.20
2022-11-02T07:59:46.284Z,12.38
2022-11-02T08:04:47.563Z,12.48
2022-11-02T08:09:48.900Z,12.54
2022-11-02T08:14:50.339Z,12.64
2022-11-02T08:19:51.656Z,12.57
2022-11-02T08:24:52.975Z,12.63
2022-11-02T08:29:54.324Z,12.67
2022-11-02T08:34:55.746Z,12.94
2022-11-02T08:39:57.105Z,13.28
2022-11-02T08:44:58.681Z,13.89
2022-11-02T08:50:00.046Z,14.33
2022-11-02T08:55:01.547Z,14.03
2022-11-02T09:00:03.387Z,14.07
2022-11-02T09:05:05.128Z,14.68
2022-11-02T09:10:07.646Z,15.18
2022-11-02T09:15:09.335Z,15.62
2022-11-02T09:20:10.638Z,16.43
2022-11-02T09:25:13.319Z,17.30
2022-11-02T09:30:14.704Z,17.21
2022-11-02T09:35:16.051Z,16.75
2022-11-02T09:40:21.530Z,17.45
2022-11-02T09:45:23.403Z,17.58
2022-11-02T09:50:33.932Z,16.91
2022-11-02T09:55:37.601Z,17.81
2022-11-02T10:00:41.951Z,17.88
2022-11-02T10:05:53.004Z,17.53
2022-11-02T10:11:18.709Z,18.33
2022-11-02T10:16:25.011Z,18.49
2022-11-02T10:21:32.455Z,18.04
2022-11-02T10:26:37.307Z,19.50
2022-11-02T10:31:38.630Z,18.03
2022-11-02T10:37:07.603Z,16.94
2022-11-02T10:42:40.128Z,16.90
2022-11-02T10:48:07.802Z,17.69
2022-11-02T10:53:39.335Z,17.29
2022-11-02T10:58:40.713Z,24.90
2022-11-02T11:03:56.583Z,28.84
2022-11-02T11:09:20.138Z,31.00
2022-11-02T11:19:52.974Z,32.78
2022-11-02T11:25:27.561Z,31.73
2022-11-02T11:35:57.783Z,23.46
2022-11-02T11:41:00.006Z,22.22
2022-11-02T11:46:06.594Z,28.35
2022-11-02T11:51:36.892Z,29.32
2022-11-02T11:56:38.265Z,29.39
2022-11-02T12:01:40.284Z,30.21
2022-11-02T12:06:55.396Z,26.19
2022-11-02T12:12:24.528Z,32.32
2022-11-02T12:17:46.766Z,34.11
2022-11-02T12:23:18.970Z,28.85
2022-11-02T12:28:29.989Z,27.10
2022-11-02T12:34:05.343Z,33.18
2022-11-02T12:39:45.786Z,33.85
2022-11-02T12:45:26.456Z,35.98
2022-11-02T12:50:52.300Z,36.00
2022-11-02T12:55:57.765Z,31.09
2022-11-02T13:01:13.325Z,31.55
2022-11-02T13:06:19.550Z,33.71
2022-11-02T13:11:31.727Z,35.38
2022-11-02T13:16:54.619Z,34.93
2022-11-02T13:21:58.147Z,35.03
2022-11-02T13:27:21.687Z,33.11
2022-11-02T13:32:46.857Z,33.09
2022-11-02T13:37:55.279Z,32.30
2022-11-02T13:43:07.201Z,34.76
2022-11-02T13:48:27.150Z,34.42
2022-11-02T13:53:37.287Z,33.21
2022-11-02T13:58:46.701Z,33.47
2022-11-02T14:04:00.476Z,33.10
2022-11-02T14:09:07.559Z,31.87
2022-11-02T14:14:11.900Z,29.84
2022-11-02T14:19:21.999Z,28.09
2022-11-02T14:24:32.360Z,25.46
2022-11-02T14:29:44.684Z,25.55
2022-11-02T14:35:23.887Z,27.40
2022-11-02T14:40:36.120Z,27.02
2022-11-02T14:45:50.295Z,25.79
2022-11-02T14:51:16.160Z,22.73
2022-11-02T14:56:17.551Z,21.03
2022-11-02T15:01:19.644Z,20.03
2022-11-02T15:06:26.856Z,19.46
2022-11-02T15:11:49.521Z,18.82
2022-11-02T15:16:50.901Z,18.17
2022-11-02T15:21:53.171Z,18.11
2022-11-02T15:27:00.256Z,17.74
2022-11-02T15:32:03.592Z,17.35
2022-11-02T15:37:05.715Z,17.17
2022-11-02T15:42:36.023Z,17.03
2022-11-02T15:47:56.059Z,16.86
2022-11-02T15:53:22.247Z,16.59
2022-11-02T15:58:31.613Z,16.53
2022-11-02T16:03:33.687Z,16.38
2022-11-02T16:08:37.839Z,16.28
2022-11-02T16:13:55.694Z,16.18
2022-11-02T16:19:01.110Z,16.00
2022-11-02T16:24:02.453Z,15.97
2022-11-02T16:29:08.450Z,15.67
2022-11-02T16:34:21.965Z,15.64
2022-11-02T16:39:39.459Z,15.59
2022-11-02T16:44:43.054Z,15.51
2022-11-02T16:49:57.628Z,15.51
2022-11-02T16:54:59.198Z,15.46
2022-11-02T17:00:04.973Z,15.35
2022-11-02T17:05:18.077Z,15.28
2022-11-02T17:10:23.841Z,15.22
2022-11-02T17:15:27.164Z,15.13
2022-11-02T17:20:29.084Z,15.03
2022-11-02T17:25:48.465Z,14.89
2022-11-02T17:30:51.562Z,14.82
2022-11-02T17:35:56.463Z,14.88
2022-11-02T17:40:59.605Z,14.89
2022-11-02T17:46:01.107Z,14.93
2022-11-02T17:51:02.468Z,14.91
2022-11-02T17:56:04.187Z,14.89
2022-11-02T18:01:05.891Z,14.75
2022-11-02T18:06:07.545Z,14.73
2022-11-02T18:11:09.056Z,14.61
2022-11-02T18:16:10.536Z,14.59
2022-11-02T18:21:12.088Z,14.42
2022-11-02T18:26:13.879Z,14.38
2022-11-02T18:31:15.249Z,14.52
2022-11-02T18:36:16.593Z,14.40
2022-11-02T18:41:30.804Z,14.22
2022-11-02T18:46:32.550Z,14.19
2022-11-02T18:51:33.968Z,14.15
2022-11-02T18:56:35.374Z,14.06
2022-11-02T19:01:36.918Z,14.04
2022-11-02T19:06:57.130Z,14.11
2022-11-02T19:12:05.253Z,13.82
2022-11-02T19:17:08.283Z,13.67
2022-11-02T19:22:13.036Z,13.71
2022-11-02T19:27:16.849Z,13.68
2022-11-02T19:32:18.866Z,13.58
2022-11-02T19:37:20.241Z,13.52
2022-11-02T19:42:21.544Z,13.12
2022-11-02T19:47:22.896Z,13.20
2022-11-02T19:52:24.504Z,13.11
2022-11-02T19:57:29.377Z,12.99
2022-11-02T20:02:34.449Z,12.90
2022-11-02T20:07:35.814Z,12.77
2022-11-02T20:12:37.097Z,12.92
2022-11-02T20:17:52.376Z,12.94
2022-11-02T20:22:59.870Z,12.84
2022-11-02T20:28:01.195Z,12.62
2022-11-02T20:33:02.512Z,12.45
2022-11-02T20:38:04.309Z,12.31
2022-11-02T20:43:06.944Z,12.15
2022-11-02T20:48:08.586Z,12.15
2022-11-02T20:53:10.125Z,12.02
2022-11-02T20:58:11.547Z,11.95
2022-11-02T21:03:13.726Z,11.78
2022-11-02T21:08:15.551Z,11.78
2022-11-02T21:13:35.402Z,11.75
2022-11-02T21:18:37.055Z,11.62
2022-11-02T21:23:38.418Z,11.49
2022-11-02T21:28:42.121Z,11.57
2022-11-02T21:33:44.610Z,11.53
2022-11-02T21:38:46.902Z,11.58
2022-11-02T21:43:51.771Z,11.37
2022-11-02T21:48:55.124Z,11.46
2022-11-02T21:53:56.759Z,11.86
2022-11-02T21:58:58.287Z,11.64
2022-11-02T22:04:00.112Z,11.44
2022-11-02T22:09:01.893Z,11.34
2022-11-02T22:14:03.698Z,11.24
2022-11-02T22:19:10.403Z,11.26
2022-11-02T22:24:12.393Z,11.21
2022-11-02T22:29:13.689Z,11.13
2022-11-02T22:34:15.655Z,11.36
2022-11-02T22:39:17.048Z,11.46
2022-11-02T22:44:20.951Z,11.46
2022-11-02T22:49:22.303Z,11.23
2022-11-02T22:54:23.646Z,11.14
2022-11-02T22:59:24.935Z,11.07
2022-11-02T23:04:26.279Z,11.10
2022-11-02T23:09:27.563Z,11.09
2022-11-02T23:14:28.897Z,11.30
2022-11-02T23:19:30.431Z,11.14
2022-11-02T23:24:50.476Z,11.12
2022-11-02T23:30:10.303Z,11.35
2022-11-02T23:35:30.261Z,11.39
2022-11-02T23:40:32.658Z,11.39
2022-11-02T23:45:34.640Z,11.21
2022-11-02T23:50:54.937Z,11.12
2022-11-02T23:56:15.699Z,11.30
